Time;durP1;ratioP1;P1;durP2;ratioP2;P2;SDS_P1;SDS_P2;PMS_P1;PMS_P2;Temp;Humidity;BMP_temperature;BMP_pressure;BME280_temperature;BME280_humidity;BME280_pressure;Samples;Min_cycle;Max_cycle;Signal;HPM_P1;HPM_P2
2023/10/04 00:01:38;;;;;;;;;;;;;;;23.11;50.83;101539.97;7391918;19;1853;-41
2023/10/04 00:04:06;;;;;;;;;;;;;;;23.07;51.05;101534.00;7379572;19;1709;-41
2023/10/04 00:06:35;;;;;;;;;;;;;;;23.07;51.01;101542.09;7395309;19;1595;-41
2023/10/04 00:09:06;;;;;;;;;;;;;;;23.07;50.89;101534.00;7391397;19;2205;-41
2023/10/04 00:11:34;;;;;;;;;;;;;;;23.07;50.85;101523.22;7393319;19;1535;-41
2023/10/04 00:14:02;;;;;;;;;;;;;;;23.13;50.87;101536.13;7394083;19;1760;-41
2023/10/04 00:16:32;;;;;;;;;;;;;;;23.09;50.78;101520.38;7394430;19;1578;-41
2023/10/04 00:19:00;;;;;;;;;;;;;;;23.11;50.90;101516.53;7400627;19;1750;-41
2023/10/04 00:21:29;;;;;;;;;;;;;;;23.10;50.78;101520.25;7399355;19;1853;-41
2023/10/04 00:23:58;;;;;;;;;;;;;;;23.07;50.94;101506.19;7401131;19;1762;-41
2023/10/04 00:26:30;;;;;;;;;;;;;;;23.09;50.82;101518.53;7400031;19;1252;-41
2023/10/04 00:28:58;;;;;;;;;;;;;;;23.11;50.82;101507.59;7400127;19;1667;-41
2023/10/04 00:31:26;;;;;;;;;;;;;;;23.08;50.74;101515.97;7399689;19;1480;-41
2023/10/04 00:33:55;;;;;;;;;;;;;;;23.09;50.82;101504.19;7401048;19;1473;-41
2023/10/04 00:36:23;;;;;;;;;;;;;;;23.03;50.89;101506.47;7401144;19;1945;-41
2023/10/04 00:38:53;;;;;;;;;;;;;;;23.06;50.91;101509.88;7399816;19;1569;-41
2023/10/04 00:41:21;;;;;;;;;;;;;;;23.10;50.94;101495.09;7397861;19;1861;-41
2023/10/04 00:43:53;;;;;;;;;;;;;;;23.04;51.15;101504.66;7399969;19;1555;-41
2023/10/04 00:46:22;;;;;;;;;;;;;;;23.02;50.90;101499.38;7399290;19;1561;-41
2023/10/04 00:48:54;;;;;;;;;;;;;;;23.07;51.11;101500.78;7395705;19;1627;-41
2023/10/04 00:51:26;;;;;;;;;;;;;;;23.11;50.98;101507.59;7397822;19;1605;-41
2023/10/04 00:53:55;;;;;;;;;;;;;;;23.05;50.87;101483.91;7399298;19;1631;-41
2023/10/04 00:56:24;;;;;;;;;;;;;;;23.05;51.06;101497.41;7398704;19;1494;-41
2023/10/04 00:58:57;;;;;;;;;;;;;;;22.72;51.08;101442.88;7398350;19;1654;-41
2023/10/04 01:01:25;;;;;;;;;;;;;;;23.08;50.92;101489.00;7399254;19;1850;-41
2023/10/04 01:03:54;;;;;;;;;;;;;;;23.10;50.82;101478.91;7384142;19;1595;-41
2023/10/04 01:06:22;;;;;;;;;;;;;;;23.08;50.98;101497.97;7399794;19;1601;-40
2023/10/04 01:08:50;;;;;;;;;;;;;;;23.01;51.05;101480.59;7398261;19;1571;-41
2023/10/04 01:11:20;;;;;;;;;;;;;;;23.06;51.14;101485.59;7399500;19;1645;-40
2023/10/04 01:13:49;;;;;;;;;;;;;;;23.07;50.98;101487.31;7397893;19;1484;-40
2023/10/04 01:16:24;;;;;;;;;;;;;;;23.00;50.90;101487.00;7399307;19;1416;-41
2023/10/04 01:18:52;;;;;;;;;;;;;;;23.01;51.14;101489.53;7399278;19;1559;-41
2023/10/04 01:21:20;;;;;;;;;;;;;;;23.07;50.81;101495.41;7397555;19;1881;-40
2023/10/04 01:23:52;;;;;;;;;;;;;;;23.00;50.82;101481.63;7398333;19;1824;-41
2023/10/04 01:26:25;;;;;;;;;;;;;;;23.03;51.21;101492.13;7399543;19;1466;-40
2023/10/04 01:28:55;;;;;;;;;;;;;;;23.00;51.03;101484.31;7397201;19;1729;-41
2023/10/04 01:31:25;;;;;;;;;;;;;;;23.00;50.83;101484.31;7397372;19;1722;-40
2023/10/04 01:33:53;;;;;;;;;;;;;;;23.03;50.81;101487.59;7398563;19;1555;-41
2023/10/04 01:36:22;;;;;;;;;;;;;;;23.07;50.77;101481.91;7394440;19;1579;-40
2023/10/04 01:38:53;;;;;;;;;;;;;;;23.03;50.67;101473.25;7395509;19;1559;-40
2023/10/04 01:41:22;;;;;;;;;;;;;;;23.07;50.78;101495.41;7395667;19;1846;-41
2023/10/04 01:43:53;;;;;;;;;;;;;;;23.08;50.67;101476.38;7396029;19;1499;-41
2023/10/04 01:46:21;;;;;;;;;;;;;;;23.00;50.75;101485.16;7396939;19;1503;-41
2023/10/04 01:48:51;;;;;;;;;;;;;;;22.98;50.86;101480.91;7396030;19;1908;-41
2023/10/04 01:51:21;;;;;;;;;;;;;;;23.02;50.73;101488.59;7399215;19;1470;-41
2023/10/04 01:53:53;;;;;;;;;;;;;;;22.99;50.98;101472.66;7394624;19;1912;-41
2023/10/04 01:56:22;;;;;;;;;;;;;;;23.04;50.82;101480.38;7396838;19;1594;-41
2023/10/04 01:58:48;;;;;;;;;;;;;;;23.00;50.78;101474.38;7397291;19;1742;-40
2023/10/04 02:01:16;;;;;;;;;;;;;;;22.99;50.74;101482.59;7397387;19;1862;-40
2023/10/04 02:03:45;;;;;;;;;;;;;;;22.96;50.72;101478.34;7383088;19;1691;-40
2023/10/04 02:06:14;;;;;;;;;;;;;;;23.02;50.75;101483.19;7396469;19;1531;-41
2023/10/04 02:08:44;;;;;;;;;;;;;;;23.03;50.93;101479.50;7398150;19;1761;-41
2023/10/04 02:11:15;;;;;;;;;;;;;;;23.07;50.53;101490.84;7394833;19;1723;-41
2023/10/04 02:13:43;;;;;;;;;;;;;;;23.05;50.83;101484.75;7396134;19;1729;-41
2023/10/04 02:16:19;;;;;;;;;;;;;;;23.07;51.00;101476.53;7397404;19;1504;-41
2023/10/04 02:18:48;;;;;;;;;;;;;;;23.03;50.85;101474.09;7398624;19;1733;-42
2023/10/04 02:21:17;;;;;;;;;;;;;;;22.97;50.99;101480.03;7394699;19;1954;-41
2023/10/04 02:23:46;;;;;;;;;;;;;;;23.07;50.47;101476.53;7397024;19;1741;-41
2023/10/04 02:26:16;;;;;;;;;;;;;;;23.04;50.59;101483.06;7396967;19;1190;-41
2023/10/04 02:28:45;;;;;;;;;;;;;;;23.03;50.74;101484.88;7397880;19;1717;-41
2023/10/04 02:31:14;;;;;;;;;;;;;;;23.00;50.84;101485.16;7397712;19;1784;-41
2023/10/04 02:33:40;;;;;;;;;;;;;;;23.03;50.81;101474.09;7396821;19;1933;-41
2023/10/04 02:36:09;;;;;;;;;;;;;;;23.02;50.81;101485.91;7394833;19;2550;-41
2023/10/04 02:38:37;;;;;;;;;;;;;;;23.07;50.75;101484.59;7395629;19;1444;-41
2023/10/04 02:41:10;;;;;;;;;;;;;;;23.06;50.75;101472.09;7393711;19;1851;-41
2023/10/04 02:43:42;;;;;;;;;;;;;;;23.02;50.77;101472.41;7396174;19;1541;-41
2023/10/04 02:46:11;;;;;;;;;;;;;;;23.01;50.87;101459.03;7395686;19;1956;-41
2023/10/04 02:48:41;;;;;;;;;;;;;;;22.97;50.90;101476.50;7395391;19;1646;-41
2023/10/04 02:51:09;;;;;;;;;;;;;;;23.02;51.02;101491.28;7396560;19;1555;-41
2023/10/04 02:53:41;;;;;;;;;;;;;;;22.97;50.91;101495.38;7396132;19;1389;-41
2023/10/04 02:56:09;;;;;;;;;;;;;;;22.99;50.97;101502.31;7396244;19;1718;-41
2023/10/04 02:58:37;;;;;;;;;;;;;;;23.00;50.97;101485.16;7395128;19;1388;-41
2023/10/04 03:01:08;;;;;;;;;;;;;;;23.02;50.83;101488.59;7395944;19;1845;-41
2023/10/04 03:03:37;;;;;;;;;;;;;;;22.98;51.06;101475.53;7387610;19;1618;-43
2023/10/04 03:06:05;;;;;;;;;;;;;;;22.94;50.98;101472.25;7393851;19;1699;-41
2023/10/04 03:08:34;;;;;;;;;;;;;;;22.93;51.26;101497.50;7394860;19;1922;-41
2023/10/04 03:11:03;;;;;;;;;;;;;;;22.97;51.16;101493.53;7396361;19;1852;-41
2023/10/04 03:13:32;;;;;;;;;;;;;;;22.94;51.11;101496.53;7395296;19;1540;-41
2023/10/04 03:16:01;;;;;;;;;;;;;;;22.97;50.86;101480.03;7395332;19;1815;-41
2023/10/04 03:18:33;;;;;;;;;;;;;;;23.03;50.86;101494.84;7395200;19;1361;-41
2023/10/04 03:21:10;;;;;;;;;;;;;;;22.96;51.21;101472.09;7394978;19;1858;-41
2023/10/04 03:23:42;;;;;;;;;;;;;;;22.98;51.25;101497.94;7390769;19;1503;-41
2023/10/04 03:26:12;;;;;;;;;;;;;;;22.99;51.23;101480.75;7394776;19;1640;-42
2023/10/04 03:28:40;;;;;;;;;;;;;;;22.96;51.19;101483.75;7396291;19;1492;-42
2023/10/04 03:31:10;;;;;;;;;;;;;;;22.93;51.50;101477.78;7396996;19;1385;-42
2023/10/04 03:33:42;;;;;;;;;;;;;;;23.04;51.55;101493.84;7396476;19;2009;-42
2023/10/04 03:36:14;;;;;;;;;;;;;;;23.06;51.27;101488.28;7395628;19;1534;-41
2023/10/04 03:38:43;;;;;;;;;;;;;;;22.98;51.35;101481.75;7397280;19;1697;-42
2023/10/04 03:41:12;;;;;;;;;;;;;;;22.98;51.45;101484.44;7396159;19;1866;-42
2023/10/04 03:43:41;;;;;;;;;;;;;;;22.97;51.61;101490.81;7395683;19;1516;-42
2023/10/04 03:46:17;;;;;;;;;;;;;;;23.02;51.81;101491.28;7395861;19;1630;-42
2023/10/04 03:48:48;;;;;;;;;;;;;;;23.00;51.82;101495.94;7394083;19;1571;-41
2023/10/04 03:51:19;;;;;;;;;;;;;;;23.12;51.79;101488.59;7391655;19;1384;-42
2023/10/04 03:53:49;;;;;;;;;;;;;;;23.09;51.80;101490.72;7398841;19;1444;-42
2023/10/04 03:56:18;;;;;;;;;;;;;;;22.95;52.40;101481.19;7393753;19;1485;-48
2023/10/04 03:58:48;;;;;;;;;;;;;;;22.94;52.30;101480.34;7399967;19;1592;-42
2023/10/04 04:01:17;;;;;;;;;;;;;;;23.03;52.40;101484.88;7399141;19;2518;-42
2023/10/04 04:03:49;;;;;;;;;;;;;;;23.12;52.55;101477.78;7398770;19;1473;-44
2023/10/04 04:06:18;;;;;;;;;;;;;;;23.11;52.43;101513.84;7390702;19;1432;-44
2023/10/04 04:08:46;;;;;;;;;;;;;;;23.06;52.51;101477.50;7400805;19;1487;-44
2023/10/04 04:11:15;;;;;;;;;;;;;;;23.05;52.46;101481.22;7402468;19;1505;-44
2023/10/04 04:13:44;;;;;;;;;;;;;;;23.05;52.53;101487.44;7400402;19;1885;-44
2023/10/04 04:16:16;;;;;;;;;;;;;;;22.99;52.53;101483.44;7401043;19;1539;-43
2023/10/04 04:18:47;;;;;;;;;;;;;;;23.05;52.72;101478.50;7401119;19;1699;-43
2023/10/04 04:21:18;;;;;;;;;;;;;;;22.94;52.87;101474.94;7400587;19;1841;-43
2023/10/04 04:23:46;;;;;;;;;;;;;;;22.94;53.02;101474.06;7401289;19;1536;-43
2023/10/04 04:26:15;;;;;;;;;;;;;;;22.96;52.85;101481.06;7398680;19;1613;-40
2023/10/04 04:28:44;;;;;;;;;;;;;;;23.02;53.05;101469.72;7397294;19;1430;-40
2023/10/04 04:31:14;;;;;;;;;;;;;;;22.96;53.31;101477.47;7399683;19;1522;-41
2023/10/04 04:33:42;;;;;;;;;;;;;;;22.99;53.32;101480.75;7400379;19;1825;-41
2023/10/04 04:36:15;;;;;;;;;;;;;;;22.82;53.86;101486.91;7400385;19;1529;-41
2023/10/04 04:38:47;;;;;;;;;;;;;;;22.96;53.67;101494.53;7399990;19;1595;-41
2023/10/04 04:41:21;;;;;;;;;;;;;;;23.07;53.34;101493.53;7400744;19;1854;-41
2023/10/04 04:43:49;;;;;;;;;;;;;;;23.12;53.11;101506.59;7400130;19;1562;-41
2023/10/04 04:46:18;;;;;;;;;;;;;;;22.89;49.05;101503.34;7396712;19;1478;-41
2023/10/04 04:48:48;;;;;;;;;;;;;;;22.81;46.16;101507.59;7400937;19;1543;-41
2023/10/04 04:51:18;;;;;;;;;;;;;;;23.07;45.73;101512.44;7401312;19;1264;-41
2023/10/04 04:53:49;;;;;;;;;;;;;;;22.85;43.87;101502.78;7397957;19;1819;-40
2023/10/04 04:56:19;;;;;;;;;;;;;;;22.13;43.17;101514.75;7401257;19;1732;-40
2023/10/04 04:58:51;;;;;;;;;;;;;;;21.74;42.29;101510.06;7399411;19;1758;-42
2023/10/04 05:01:21;;;;;;;;;;;;;;;21.55;42.03;101523.47;7398521;19;1864;-42
2023/10/04 05:03:50;;;;;;;;;;;;;;;21.38;41.33;101517.66;7398039;19;1578;-41
2023/10/04 05:06:22;;;;;;;;;;;;;;;21.33;41.23;101513.66;7384156;19;1640;-41
2023/10/04 05:08:54;;;;;;;;;;;;;;;21.29;40.98;101517.59;7399876;19;1586;-40
2023/10/04 05:11:23;;;;;;;;;;;;;;;21.21;40.58;101515.59;7400361;19;1634;-40
2023/10/04 05:13:53;;;;;;;;;;;;;;;21.23;40.73;101519.00;7399214;19;1440;-40
2023/10/04 05:16:21;;;;;;;;;;;;;;;21.17;41.39;101531.13;7394122;19;1723;-40
2023/10/04 05:18:50;;;;;;;;;;;;;;;21.19;40.82;101517.56;7398444;19;1378;-40
2023/10/04 05:21:18;;;;;;;;;;;;;;;21.27;40.43;101531.19;7399638;19;1864;-40
2023/10/04 05:23:46;;;;;;;;;;;;;;;21.24;40.24;101518.84;7399452;19;1507;-40
2023/10/04 05:26:19;;;;;;;;;;;;;;;21.33;40.43;101536.03;7399555;19;1594;-41
2023/10/04 05:28:47;;;;;;;;;;;;;;;21.42;40.34;101534.38;7398914;19;1571;-40
2023/10/04 05:31:15;;;;;;;;;;;;;;;21.45;40.23;101535.00;7398179;19;1629;-40
2023/10/04 05:33:43;;;;;;;;;;;;;;;21.48;40.28;101533.03;7397470;19;1512;-41
2023/10/04 05:36:12;;;;;;;;;;;;;;;20.85;40.47;101536.56;7397384;19;1479;-40
2023/10/04 05:38:40;;;;;;;;;;;;;;;19.60;42.33;101533.16;7399151;19;1635;-40
2023/10/04 05:41:09;;;;;;;;;;;;;;;19.23;42.78;101540.53;7396654;19;1469;-40
2023/10/04 05:43:40;;;;;;;;;;;;;;;19.10;43.18;101546.00;7399321;19;1409;-40
2023/10/04 05:46:09;;;;;;;;;;;;;;;19.26;42.93;101551.03;7397760;19;1329;-40
2023/10/04 05:48:37;;;;;;;;;;;;;;;19.10;43.33;101550.47;7397332;19;1565;-40
2023/10/04 05:51:06;;;;;;;;;;;;;;;19.64;42.87;101539.16;7394247;19;1245;-40
2023/10/04 05:53:35;;;;;;;;;;;;;;;20.45;41.42;101540.69;7396086;19;1493;-40
2023/10/04 05:56:03;;;;;;;;;;;;;;;20.95;40.50;101547.34;7396510;19;1391;-40
2023/10/04 05:58:31;;;;;;;;;;;;;;;21.26;40.29;101557.22;7397178;19;1451;-40
2023/10/04 06:01:02;;;;;;;;;;;;;;;21.52;40.31;101556.00;7398527;19;1471;-40
2023/10/04 06:03:32;;;;;;;;;;;;;;;21.67;39.76;101559.22;7395520;19;1842;-40
2023/10/04 06:06:00;;;;;;;;;;;;;;;21.79;39.80;101561.69;7383379;19;1546;-41
2023/10/04 06:08:28;;;;;;;;;;;;;;;21.84;39.76;101562.13;7394164;19;1492;-42
2023/10/04 06:10:57;;;;;;;;;;;;;;;21.94;39.98;101556.75;7397086;19;1439;-42
2023/10/04 06:13:25;;;;;;;;;;;;;;;22.09;39.67;101568.03;7398194;19;1428;-42
2023/10/04 06:15:55;;;;;;;;;;;;;;;21.96;40.11;101557.47;7396348;19;1558;-42
2023/10/04 06:18:28;;;;;;;;;;;;;;;21.95;40.23;101569.25;7397916;19;1586;-42
2023/10/04 06:20:57;;;;;;;;;;;;;;;21.84;40.63;101564.81;7397105;19;1823;-42
2023/10/04 06:23:25;;;;;;;;;;;;;;;21.85;40.67;101550.38;7393667;19;1847;-42
2023/10/04 06:25:53;;;;;;;;;;;;;;;21.82;40.75;101561.38;7395072;19;1724;-42
2023/10/04 06:28:22;;;;;;;;;;;;;;;21.85;40.93;101546.81;7393938;19;1492;-41
2023/10/04 06:30:52;;;;;;;;;;;;;;;21.84;40.94;101555.88;7398093;19;1678;-41
2023/10/04 06:33:20;;;;;;;;;;;;;;;21.80;40.98;101549.06;7397154;19;1261;-41
2023/10/04 06:35:51;;;;;;;;;;;;;;;21.79;41.00;101552.75;7394849;19;1418;-41
2023/10/04 06:38:20;;;;;;;;;;;;;;;21.78;41.05;101551.88;7396200;19;1539;-41
2023/10/04 06:40:49;;;;;;;;;;;;;;;21.89;41.14;101545.56;7397115;19;1391;-41
2023/10/04 06:43:17;;;;;;;;;;;;;;;21.69;41.03;101524.94;7394292;19;1862;-41
2023/10/04 06:45:45;;;;;;;;;;;;;;;21.97;40.97;101545.72;7392391;19;1372;-41
2023/10/04 06:48:14;;;;;;;;;;;;;;;21.93;40.63;101543.47;7392073;19;1409;-41
2023/10/04 06:50:44;;;;;;;;;;;;;;;22.01;41.00;101536.38;7392133;19;1579;-41
2023/10/04 06:53:15;;;;;;;;;;;;;;;22.16;40.79;101539.56;7392887;19;1595;-41
2023/10/04 06:55:43;;;;;;;;;;;;;;;22.31;40.57;101541.91;7390547;19;1451;-41
2023/10/04 06:58:12;;;;;;;;;;;;;;;22.22;40.83;101549.78;7394560;19;1575;-41
2023/10/04 07:00:41;;;;;;;;;;;;;;;22.27;40.60;101532.38;7397184;19;1212;-41
2023/10/04 07:03:10;;;;;;;;;;;;;;;22.27;40.74;101538.63;7393909;19;1862;-42
2023/10/04 07:05:39;;;;;;;;;;;;;;;22.34;40.89;101536.22;7380082;19;1479;-42
2023/10/04 07:08:08;;;;;;;;;;;;;;;22.46;40.92;101534.25;7396374;19;1492;-42
2023/10/04 07:10:39;;;;;;;;;;;;;;;22.34;40.63;101520.94;7395196;19;1448;-42
2023/10/04 07:13:08;;;;;;;;;;;;;;;22.30;40.42;101526.72;7396092;19;1397;-42
2023/10/04 07:15:39;;;;;;;;;;;;;;;22.29;40.88;101530.41;7395069;19;1471;-42
2023/10/04 07:18:09;;;;;;;;;;;;;;;22.47;40.76;101526.03;7396048;19;1492;-40
2023/10/04 07:20:38;;;;;;;;;;;;;;;22.46;41.54;101535.09;7396592;19;1427;-42
2023/10/04 07:23:07;;;;;;;;;;;;;;;;;;7395346;19;1839;-42
2023/10/04 07:25:37;;;;;;;;;;;;;;;22.48;41.88;101543.91;7396862;19;1583;-42
2023/10/04 07:28:09;;;;;;;;;;;;;;;22.48;41.30;101532.28;7394247;19;1426;-42
2023/10/04 07:30:37;;;;;;;;;;;;;;;22.39;41.79;101533.97;7393363;19;1875;-42
2023/10/04 07:33:07;;;;;;;;;;;;;;;22.50;41.39;101541.94;7395580;19;1389;-42
2023/10/04 07:35:35;;;;;;;;;;;;;;;22.62;41.82;101535.41;7394817;19;1615;-42
2023/10/04 07:38:05;;;;;;;;;;;;;;;22.78;41.84;101525.91;7395490;19;1486;-42
2023/10/04 07:40:33;;;;;;;;;;;;;;;22.88;43.31;101513.28;7394467;19;1388;-42
2023/10/04 07:43:02;;;;;;;;;;;;;;;22.76;43.70;101541.38;7392155;19;1946;-41
2023/10/04 07:45:33;;;;;;;;;;;;;;;22.72;43.69;101548.03;7395589;19;1459;-42
2023/10/04 07:48:01;;;;;;;;;;;;;;;22.76;44.23;101525.19;7391719;19;1110;-42
2023/10/04 07:50:31;;;;;;;;;;;;;;;22.83;43.66;101526.34;7392947;19;1834;-42
2023/10/04 07:53:04;;;;;;;;;;;;;;;22.90;43.16;101527.47;7394163;19;1480;-42
2023/10/04 07:55:33;;;;;;;;;;;;;;;22.93;41.14;101511.00;7394336;19;1622;-42
2023/10/04 07:58:04;;;;;;;;;;;;;;;22.87;42.02;101527.75;7393265;19;1491;-42
2023/10/04 08:00:36;;;;;;;;;;;;;;;22.81;43.44;101514.84;7393432;19;1515;-42
2023/10/04 08:03:05;;;;;;;;;;;;;;;22.87;43.05;101516.97;7388732;19;1855;-42
2023/10/04 08:05:34;;;;;;;;;;;;;;;22.95;42.91;101516.25;7378345;19;1186;-42
2023/10/04 08:08:03;;;;;;;;;;;;;;;23.11;42.96;101524.63;7392263;19;2025;-42
2023/10/04 08:10:32;;;;;;;;;;;;;;;23.19;43.00;101532.00;7391808;19;1893;-42
2023/10/04 08:13:01;;;;;;;;;;;;;;;23.21;41.78;101530.84;7392561;19;1693;-42
2023/10/04 08:15:30;;;;;;;;;;;;;;;23.18;42.69;101541.97;7391970;19;1754;-42
2023/10/04 08:18:01;;;;;;;;;;;;;;;23.21;42.44;101538.13;7390665;19;1480;-42
2023/10/04 08:20:32;;;;;;;;;;;;;;;23.16;41.26;101513.44;7391039;19;1675;-42
2023/10/04 08:23:02;;;;;;;;;;;;;;;23.21;41.94;101516.53;7391580;19;1846;-42
2023/10/04 08:25:32;;;;;;;;;;;;;;;23.15;42.20;101531.44;7390660;19;2427;-42
2023/10/04 08:28:00;;;;;;;;;;;;;;;23.11;42.35;101529.19;7390993;19;1508;-42
2023/10/04 08:30:30;;;;;;;;;;;;;;;23.24;42.03;101524.34;7391388;19;1366;-42
2023/10/04 08:33:03;;;;;;;;;;;;;;;23.33;41.82;101522.59;7391266;19;1475;-42
2023/10/04 08:35:33;;;;;;;;;;;;;;;23.38;41.63;101515.78;7391568;19;1392;-42
2023/10/04 08:38:04;;;;;;;;;;;;;;;23.41;41.72;101510.06;7389516;19;1460;-42
2023/10/04 08:40:35;;;;;;;;;;;;;;;23.50;42.11;101507.50;7395693;19;1434;-42
2023/10/04 08:43:04;;;;;;;;;;;;;;;23.54;42.11;101514.31;7396269;19;1872;-42
2023/10/04 08:45:33;;;;;;;;;;;;;;;23.56;42.24;101512.31;7395825;19;1818;-42
2023/10/04 08:48:05;;;;;;;;;;;;;;;23.56;42.13;101517.72;7393866;19;1432;-42
2023/10/04 08:50:38;;;;;;;;;;;;;;;23.58;42.43;101508.47;7397202;19;1534;-42
2023/10/04 08:53:12;;;;;;;;;;;;;;;23.58;42.44;101504.94;7396865;19;1350;-42
2023/10/04 08:55:42;;;;;;;;;;;;;;;23.59;42.60;101506.59;7397520;19;1455;-42
2023/10/04 08:58:11;;;;;;;;;;;;;;;23.53;42.90;101512.59;7396970;19;1499;-42
2023/10/04 09:00:43;;;;;;;;;;;;;;;23.56;42.94;101501.53;7396170;19;1769;-42
2023/10/04 09:03:15;;;;;;;;;;;;;;;23.55;43.15;101516.00;7396050;19;1867;-42
2023/10/04 09:05:46;;;;;;;;;;;;;;;23.60;43.24;101511.88;7380681;19;1586;-42
2023/10/04 09:08:16;;;;;;;;;;;;;;;23.59;43.11;101509.31;7396629;19;1516;-42
2023/10/04 09:10:44;;;;;;;;;;;;;;;23.58;43.26;101515.72;7398366;19;1565;-42
2023/10/04 09:13:12;;;;;;;;;;;;;;;23.55;43.59;101511.44;7396985;19;1409;-42
2023/10/04 09:15:41;;;;;;;;;;;;;;;23.58;43.56;101510.31;7397395;19;1523;-42
2023/10/04 09:18:10;;;;;;;;;;;;;;;23.59;43.64;101502.06;7396528;19;1485;-42
2023/10/04 09:20:42;;;;;;;;;;;;;;;23.65;43.62;101510.56;7396697;19;1192;-43
2023/10/04 09:23:22;;;;;;;;;;;;;;;23.65;43.74;101524.91;7395226;19;1858;-43
2023/10/04 09:25:54;;;;;;;;;;;;;;;23.63;43.68;101503.50;7396251;19;1589;-42
2023/10/04 09:28:23;;;;;;;;;;;;;;;23.63;43.87;101506.19;7395814;19;1530;-42
2023/10/04 09:30:51;;;;;;;;;;;;;;;23.60;43.99;101511.88;7397317;19;1530;-43
2023/10/04 09:33:28;;;;;;;;;;;;;;;23.56;44.33;101515.03;7395695;19;2284;-43
2023/10/04 09:35:59;;;;;;;;;;;;;;;23.67;43.95;101513.97;7397997;19;1746;-42
2023/10/04 09:38:30;;;;;;;;;;;;;;;23.70;43.93;101511.00;7397561;19;1414;-42
2023/10/04 09:40:59;;;;;;;;;;;;;;;23.78;43.84;101520.06;7398367;19;1737;-42
2023/10/04 09:43:35;;;;;;;;;;;;;;;23.74;44.11;101505.13;7396529;19;1853;-42
2023/10/04 09:46:04;;;;;;;;;;;;;;;23.70;44.20;101513.69;7392147;19;1388;-42
2023/10/04 09:48:33;;;;;;;;;;;;;;;23.56;45.21;101501.53;7395712;19;1479;-42
2023/10/04 09:51:05;;;;;;;;;;;;;;;23.62;45.03;101490.97;7394105;19;1794;-42
2023/10/04 09:53:34;;;;;;;;;;;;;;;23.73;44.74;101486.38;7394831;19;1490;-42
2023/10/04 09:56:03;;;;;;;;;;;;;;;23.85;44.37;101487.91;7398058;19;1563;-42
2023/10/04 09:58:32;;;;;;;;;;;;;;;23.74;44.80;101488.94;7394497;19;1238;-48
2023/10/04 10:01:11;;;;;;;;;;;;;;;23.73;45.13;101481.81;7393551;19;1459;-45
2023/10/04 10:03:43;;;;;;;;;;;;;;;23.92;44.24;101493.56;7388329;19;1858;-44
2023/10/04 10:06:16;;;;;;;;;;;;;;;23.84;44.71;101493.47;7380376;19;1462;-45
2023/10/04 10:08:46;;;;;;;;;;;;;;;23.93;44.54;101481.75;7394580;19;1516;-45
2023/10/04 10:11:16;;;;;;;;;;;;;;;23.73;44.75;101437.75;7394685;19;1479;-44
2023/10/04 10:13:48;;;;;;;;;;;;;;;23.91;44.87;101470.25;7396086;19;1498;-43
2023/10/04 10:16:19;;;;;;;;;;;;;;;24.01;44.68;101462.94;7395758;19;1447;-43
2023/10/04 10:18:48;;;;;;;;;;;;;;;23.93;44.67;101455.56;7397552;19;1733;-44
2023/10/04 10:21:19;;;;;;;;;;;;;;;23.85;44.88;101457.34;7398805;19;1569;-44
2023/10/04 10:23:57;;;;;;;;;;;;;;;23.81;45.02;101463.06;7395356;19;1820;-42
2023/10/04 10:26:26;;;;;;;;;;;;;;;23.82;45.05;101453.94;7398254;19;1479;-42
2023/10/04 10:29:03;;;;;;;;;;;;;;;23.87;44.87;101444.53;7393635;19;1605;-43
2023/10/04 10:31:32;;;;;;;;;;;;;;;23.91;44.97;101448.63;7397151;19;1779;-42
2023/10/04 10:34:00;;;;;;;;;;;;;;;23.79;44.77;101443.44;7394397;19;1963;-43
2023/10/04 10:36:31;;;;;;;;;;;;;;;23.82;45.16;101431.50;7397432;19;1530;-42
2023/10/04 10:38:59;;;;;;;;;;;;;;;23.81;45.02;101422.56;7395379;19;1691;-42
2023/10/04 10:41:49;;;;;;;;;;;;;;;23.73;45.23;101433.19;7397314;19;1499;-44
2023/10/04 10:44:23;;;;;;;;;;;;;;;23.65;45.11;101419.59;7394809;19;2152;-42
2023/10/04 10:46:55;;;;;;;;;;;;;;;23.86;45.07;101405.88;7381750;19;1406;-41
2023/10/04 10:49:39;;;;;;;;;;;;;;;23.85;45.22;101414.97;7394599;19;1229;-42
2023/10/04 10:52:10;;;;;;;;;;;;;;;23.74;45.29;101417.88;7395316;19;1686;-41
2023/10/04 10:54:39;;;;;;;;;;;;;;;23.68;45.43;101405.81;7396134;19;1490;-42
2023/10/04 10:57:07;;;;;;;;;;;;;;;23.61;45.68;101413.66;7395144;19;1421;-42
2023/10/04 10:59:36;;;;;;;;;;;;;;;23.66;45.55;101405.13;7391062;19;1831;-41
2023/10/04 11:02:06;;;;;;;;;;;;;;;23.86;45.27;101410.44;7393485;19;1562;-42
2023/10/04 11:04:34;;;;;;;;;;;;;;;23.84;45.47;101401.66;7395524;19;1854;-42
2023/10/04 11:07:03;;;;;;;;;;;;;;;23.72;45.69;101409.91;7381075;19;1873;-42
2023/10/04 11:09:39;;;;;;;;;;;;;;;23.63;45.80;101383.81;7392743;19;1670;-42
2023/10/04 11:12:08;;;;;;;;;;;;;;;23.64;45.40;101396.31;7378249;19;1339;-41
2023/10/04 11:14:37;;;;;;;;;;;;;;;23.53;45.77;101393.81;7393324;19;1597;-42
2023/10/04 11:17:06;;;;;;;;;;;;;;;23.53;45.68;101391.13;7391361;19;1887;-42
2023/10/04 11:19:35;;;;;;;;;;;;;;;23.59;45.69;101395.91;7392562;19;1506;-41
2023/10/04 11:22:04;;;;;;;;;;;;;;;23.62;45.20;101391.06;7395480;19;1337;-42
2023/10/04 11:24:35;;;;;;;;;;;;;;;23.67;45.34;101384.38;7390535;19;1924;-42
2023/10/04 11:27:03;;;;;;;;;;;;;;;23.70;45.24;101393.03;7392174;19;1657;-42
2023/10/04 11:29:32;;;;;;;;;;;;;;;23.70;45.04;101387.63;7392869;19;1507;-42
2023/10/04 11:32:01;;;;;;;;;;;;;;;23.69;45.09;101383.19;7394297;19;1440;-42
2023/10/04 11:34:30;;;;;;;;;;;;;;;23.70;45.18;101403.81;7394609;19;1549;-41
2023/10/04 11:37:02;;;;;;;;;;;;;;;23.66;45.19;101380.81;7393618;19;1511;-42
2023/10/04 11:39:33;;;;;;;;;;;;;;;23.71;45.16;101391.16;7392032;19;1631;-42
2023/10/04 11:42:05;;;;;;;;;;;;;;;23.67;45.18;101384.38;7394580;19;1515;-42
2023/10/04 11:44:34;;;;;;;;;;;;;;;23.62;45.28;101392.94;7392850;19;1829;-41
2023/10/04 11:47:03;;;;;;;;;;;;;;;23.61;45.34;101402.00;7395127;19;1431;-42
2023/10/04 11:49:33;;;;;;;;;;;;;;;23.58;45.51;101380.72;7393073;19;1684;-42
2023/10/04 11:52:02;;;;;;;;;;;;;;;23.61;45.53;101375.00;7392901;19;1507;-42
2023/10/04 11:54:40;;;;;;;;;;;;;;;23.62;45.46;101390.22;7394211;19;1541;-42
2023/10/04 11:57:11;;;;;;;;;;;;;;;23.56;45.44;101378.19;7392569;19;1435;-42
2023/10/04 11:59:40;;;;;;;;;;;;;;;23.57;45.66;101379.84;7394134;19;1186;-42
2023/10/04 12:02:10;;;;;;;;;;;;;;;23.58;45.44;101375.34;7392037;19;1751;-42
2023/10/04 12:04:38;;;;;;;;;;;;;;;23.61;45.25;101380.41;7391613;19;1851;-42
2023/10/04 12:07:07;;;;;;;;;;;;;;;23.66;45.37;101380.81;7375357;19;1502;-41
2023/10/04 12:09:36;;;;;;;;;;;;;;;23.68;45.32;101384.22;7391561;19;1727;-42
2023/10/04 12:12:06;;;;;;;;;;;;;;;23.65;45.38;101362.06;7391195;19;1627;-42
2023/10/04 12:14:37;;;;;;;;;;;;;;;23.62;45.39;101382.97;7398724;19;1886;-42
2023/10/04 12:17:08;;;;;;;;;;;;;;;23.60;45.47;101378.72;7399303;19;1511;-42
2023/10/04 12:19:37;;;;;;;;;;;;;;;23.56;45.46;101364.69;7400856;19;1512;-42
2023/10/04 12:22:08;;;;;;;;;;;;;;;23.59;45.51;101366.22;7399934;19;1284;-42
2023/10/04 12:24:37;;;;;;;;;;;;;;;23.55;45.69;101365.66;7399248;19;1857;-42
2023/10/04 12:27:07;;;;;;;;;;;;;;;23.59;45.69;101374.31;7399382;19;1556;-42
2023/10/04 12:29:39;;;;;;;;;;;;;;;23.55;45.69;101370.22;7397671;19;1439;-42
2023/10/04 12:32:07;;;;;;;;;;;;;;;23.51;45.87;101376.94;7397706;19;1841;-42
2023/10/04 12:34:36;;;;;;;;;;;;;;;23.51;45.76;101352.63;7399788;19;1533;-42
2023/10/04 12:37:05;;;;;;;;;;;;;;;23.51;45.99;101366.13;7396971;19;1452;-41
2023/10/04 12:39:38;;;;;;;;;;;;;;;23.52;45.72;101343.53;7398205;19;1404;-42
2023/10/04 12:42:06;;;;;;;;;;;;;;;23.53;45.52;101361.41;7399788;19;1583;-42
2023/10/04 12:44:37;;;;;;;;;;;;;;;23.52;45.79;101348.94;7396924;19;1847;-42
2023/10/04 12:47:08;;;;;;;;;;;;;;;23.51;45.80;101366.13;7399538;19;1466;-42
2023/10/04 12:49:37;;;;;;;;;;;;;;;23.50;45.74;101350.94;7399246;19;1868;-42
2023/10/04 12:52:06;;;;;;;;;;;;;;;23.51;45.68;101358.03;7398946;19;1750;-42
2023/10/04 12:54:36;;;;;;;;;;;;;;;23.50;45.89;101361.75;7398427;19;1471;-42
2023/10/04 12:57:04;;;;;;;;;;;;;;;23.49;46.06;101360.03;7398261;19;1518;-42
2023/10/04 12:59:33;;;;;;;;;;;;;;;23.45;46.18;101369.44;7396472;19;1533;-42
2023/10/04 13:02:01;;;;;;;;;;;;;;;23.42;46.38;101354.41;7397320;19;1487;-41